createdAt,value
2023-02-27T00:01:37.270Z,98488.00
2023-02-27T00:04:05.234Z,98490.00
2023-02-27T00:06:33.780Z,98504.00
2023-02-27T00:09:03.093Z,98493.00
2023-02-27T00:11:30.835Z,98506.00
2023-02-27T00:13:58.631Z,98495.00
2023-02-27T00:16:26.336Z,98505.00
2023-02-27T00:18:54.032Z,98494.00
2023-02-27T00:21:21.801Z,98498.00
2023-02-27T00:23:49.514Z,98507.00
2023-02-27T00:26:18.486Z,98500.00
2023-02-27T00:28:46.175Z,98508.00
2023-02-27T00:31:14.024Z,98499.00
2023-02-27T00:33:41.718Z,98499.00
2023-02-27T00:36:09.415Z,98502.00
2023-02-27T00:38:37.314Z,98508.00
2023-02-27T00:41:05.297Z,98505.00
2023-02-27T00:43:34.302Z,98499.00
2023-02-27T00:46:01.968Z,98498.00
2023-02-27T00:48:29.648Z,98501.00
2023-02-27T00:50:57.428Z,98497.00
2023-02-27T00:53:25.347Z,98501.00
2023-02-27T00:55:52.963Z,98503.00
2023-02-27T00:58:20.649Z,98496.00
2023-02-27T01:00:49.628Z,98500.00
2023-02-27T01:03:17.293Z,98493.00
2023-02-27T01:05:44.933Z,98497.00
2023-02-27T01:08:12.601Z,98497.00
2023-02-27T01:10:40.253Z,98493.00
2023-02-27T01:13:09.894Z,98494.00
2023-02-27T01:15:38.614Z,98494.00
2023-02-27T01:18:07.626Z,98496.00
2023-02-27T01:20:35.313Z,98493.00
2023-02-27T01:23:02.996Z,98497.00
2023-02-27T01:25:30.771Z,98488.00
2023-02-27T01:27:58.484Z,98492.00
2023-02-27T01:30:26.191Z,98493.00
2023-02-27T01:32:53.910Z,98488.00
2023-02-27T01:35:22.903Z,98496.00
2023-02-27T01:37:50.603Z,98496.00
2023-02-27T01:40:18.480Z,98496.00
2023-02-27T01:42:47.151Z,98493.00
2023-02-27T01:45:40.337Z,98494.00
2023-02-27T01:48:14.484Z,98491.00
2023-02-27T01:50:50.494Z,98498.00
2023-02-27T01:53:19.554Z,98496.00
2023-02-27T01:55:48.984Z,98486.00
2023-02-27T01:58:17.335Z,98485.00
2023-02-27T02:00:45.764Z,98495.00
2023-02-27T02:03:19.711Z,98490.00
2023-02-27T02:05:49.016Z,98500.00
2023-02-27T02:08:20.200Z,98504.00
2023-02-27T02:10:49.338Z,98502.00
2023-02-27T02:13:16.973Z,98514.00
2023-02-27T02:15:53.698Z,98511.00
2023-02-27T02:18:31.732Z,98513.00
2023-02-27T02:21:30.502Z,98516.00
2023-02-27T02:24:16.751Z,98515.00
2023-02-27T02:26:52.900Z,98522.00
2023-02-27T02:30:05.284Z,98515.00
2023-02-27T02:33:18.766Z,98521.00
2023-02-27T02:36:18.464Z,98526.00
2023-02-27T02:39:14.313Z,98523.00
2023-02-27T02:41:55.471Z,98528.00
2023-02-27T02:44:29.606Z,98525.00
2023-02-27T02:47:06.246Z,98518.00
2023-02-27T02:49:41.388Z,98520.00
2023-02-27T02:52:15.955Z,98526.00
2023-02-27T02:54:50.370Z,98526.00
2023-02-27T02:57:24.326Z,98523.00
2023-02-27T03:00:01.553Z,98531.00
2023-02-27T03:02:34.154Z,98529.00
2023-02-27T03:05:06.293Z,98530.00
2023-02-27T03:07:37.212Z,98531.00
2023-02-27T03:10:11.108Z,98527.00
2023-02-27T03:12:42.422Z,98538.00
2023-02-27T03:15:16.873Z,98536.00
2023-02-27T03:17:49.489Z,98539.00
2023-02-27T03:20:23.026Z,98540.00
2023-02-27T03:22:55.569Z,98545.00
2023-02-27T03:25:26.976Z,98541.00
2023-02-27T03:27:59.391Z,98540.00
2023-02-27T03:30:33.564Z,98542.00
2023-02-27T03:33:08.458Z,98540.00
2023-02-27T03:35:45.726Z,98550.00
2023-02-27T03:38:20.172Z,98541.00
2023-02-27T03:40:59.881Z,98550.00
2023-02-27T03:43:36.714Z,98547.00
2023-02-27T03:46:10.375Z,98542.00
2023-02-27T03:48:38.542Z,98549.00
2023-02-27T03:51:06.539Z,98545.00
2023-02-27T03:53:39.854Z,98553.00
2023-02-27T03:56:10.672Z,98557.00
2023-02-27T03:58:38.349Z,98552.00
2023-02-27T04:01:06.304Z,98557.00
2023-02-27T04:03:36.604Z,98556.00
2023-02-27T04:06:24.506Z,98569.00
2023-02-27T04:09:02.009Z,98565.00
2023-02-27T04:11:39.064Z,98565.00
2023-02-27T04:14:45.368Z,98569.00
2023-02-27T04:17:22.912Z,98564.00
2023-02-27T04:20:14.615Z,98570.00
2023-02-27T04:22:47.722Z,98563.00
2023-02-27T04:25:27.624Z,98567.00
2023-02-27T04:28:01.661Z,98566.00
2023-02-27T04:30:36.532Z,98562.00
2023-02-27T04:33:09.969Z,98565.00
2023-02-27T04:35:43.763Z,98573.00
2023-02-27T04:38:17.798Z,98563.00
2023-02-27T04:40:50.353Z,98575.00
2023-02-27T04:43:23.130Z,98566.00
2023-02-27T04:45:52.590Z,98565.00
2023-02-27T04:48:24.446Z,98569.00
2023-02-27T04:50:58.702Z,98568.00
2023-02-27T04:53:29.995Z,98572.00
2023-02-27T04:56:03.452Z,98571.00
2023-02-27T04:58:36.186Z,98580.00
2023-02-27T05:01:09.388Z,98579.00
2023-02-27T05:03:41.285Z,98571.00
2023-02-27T05:06:11.495Z,98577.00
2023-02-27T05:08:45.671Z,98579.00
2023-02-27T05:11:19.546Z,98580.00
2023-02-27T05:13:54.604Z,98569.00
2023-02-27T05:16:27.126Z,98571.00
2023-02-27T05:18:56.547Z,98579.00
2023-02-27T05:21:28.849Z,98576.00
2023-02-27T05:24:10.504Z,98586.00
2023-02-27T05:26:51.430Z,98589.00
2023-02-27T05:29:29.260Z,98584.00
2023-02-27T05:32:04.794Z,98589.00
2023-02-27T05:34:38.801Z,98587.00
2023-02-27T05:37:11.160Z,98582.00
2023-02-27T05:39:42.235Z,98590.00
2023-02-27T05:42:14.931Z,98581.00
2023-02-27T05:44:48.374Z,98591.00
2023-02-27T05:47:19.095Z,98600.00
2023-02-27T05:49:51.025Z,98603.00
2023-02-27T05:52:24.166Z,98613.00
2023-02-27T05:54:57.791Z,98607.00
2023-02-27T05:57:30.719Z,98610.00
2023-02-27T06:00:07.181Z,98612.00
2023-02-27T06:02:35.151Z,98615.00
2023-02-27T06:05:03.186Z,98612.00
2023-02-27T06:07:32.164Z,98616.00
2023-02-27T06:10:00.040Z,98615.00
2023-02-27T06:12:27.686Z,98623.00
2023-02-27T06:14:55.347Z,98622.00
2023-02-27T06:17:24.404Z,98631.00
2023-02-27T06:19:52.052Z,98624.00
2023-02-27T06:22:19.659Z,98633.00
2023-02-27T06:24:47.353Z,98621.00
2023-02-27T06:27:14.999Z,98628.00
2023-02-27T06:29:42.663Z,98634.00
2023-02-27T06:32:10.319Z,98636.00
2023-02-27T06:34:39.421Z,98638.00
2023-02-27T06:37:07.053Z,98639.00
2023-02-27T06:39:34.706Z,98642.00
2023-02-27T06:42:02.349Z,98647.00
2023-02-27T06:44:30.340Z,98649.00
2023-02-27T06:46:57.969Z,98647.00
2023-02-27T06:49:25.637Z,98652.00
2023-02-27T06:51:54.673Z,98652.00
2023-02-27T06:54:22.525Z,98658.00
2023-02-27T06:56:51.795Z,98655.00
2023-02-27T06:59:19.474Z,98661.00
2023-02-27T07:01:48.285Z,98662.00
2023-02-27T07:04:16.789Z,98659.00
2023-02-27T07:07:33.798Z,98657.00
2023-02-27T07:09:34.343Z,98652.00
2023-02-27T07:12:02.234Z,98652.00
2023-02-27T07:14:29.936Z,98649.00
2023-02-27T07:16:57.698Z,98651.00
2023-02-27T07:19:26.019Z,98643.00
2023-02-27T07:21:53.662Z,98650.00
2023-02-27T07:24:21.546Z,98649.00
2023-02-27T07:26:50.543Z,98645.00
2023-02-27T07:29:18.395Z,98640.00
2023-02-27T07:31:46.083Z,98643.00
2023-02-27T07:34:15.544Z,98651.00
2023-02-27T07:36:43.450Z,98649.00
2023-02-27T07:39:12.805Z,98653.00
2023-02-27T07:41:40.661Z,98656.00
2023-02-27T07:44:10.510Z,98664.00
2023-02-27T07:46:38.423Z,98655.00
2023-02-27T07:49:06.084Z,98657.00
2023-02-27T07:51:33.980Z,98659.00
2023-02-27T07:54:01.608Z,98657.00
2023-02-27T07:56:30.433Z,98656.00
2023-02-27T07:58:58.183Z,98662.00
2023-02-27T08:01:27.400Z,98662.00
2023-02-27T08:03:55.039Z,98657.00
2023-02-27T08:06:23.583Z,98666.00
2023-02-27T08:08:51.684Z,98661.00
2023-02-27T08:11:19.646Z,98670.00
2023-02-27T08:14:03.229Z,98652.00
2023-02-27T08:16:33.028Z,98661.00
2023-02-27T08:19:01.312Z,98662.00
2023-02-27T08:21:30.113Z,98665.00
2023-02-27T08:23:58.240Z,98665.00
2023-02-27T08:26:26.647Z,98672.00
2023-02-27T08:28:54.636Z,98663.00
2023-02-27T08:31:22.341Z,98674.00
2023-02-27T08:34:01.199Z,98666.00
2023-02-27T08:36:35.614Z,98667.00
2023-02-27T08:39:03.242Z,98669.00
2023-02-27T08:41:30.906Z,98675.00
2023-02-27T08:43:58.537Z,98680.00
2023-02-27T08:46:26.818Z,98684.00
2023-02-27T08:48:56.085Z,98681.00
2023-02-27T08:51:23.726Z,98678.00
2023-02-27T08:53:51.349Z,98690.00
2023-02-27T08:56:18.995Z,98679.00
2023-02-27T08:58:46.748Z,98682.00
2023-02-27T09:01:14.432Z,98684.00
2023-02-27T09:03:42.125Z,98685.00
2023-02-27T09:06:11.480Z,98691.00
2023-02-27T09:08:39.345Z,98694.00
2023-02-27T09:11:07.762Z,98686.00
2023-02-27T09:13:35.498Z,98694.00
2023-02-27T09:16:03.135Z,98695.00
2023-02-27T09:18:30.790Z,98691.00
2023-02-27T09:20:58.433Z,98692.00
2023-02-27T09:23:27.420Z,98692.00
2023-02-27T09:25:55.369Z,98690.00
2023-02-27T09:28:23.035Z,98684.00
2023-02-27T09:30:50.717Z,98693.00
2023-02-27T09:33:18.367Z,98692.00
2023-02-27T09:35:46.050Z,98702.00
2023-02-27T09:38:13.769Z,98708.00
2023-02-27T09:40:44.704Z,98711.00
2023-02-27T09:43:18.030Z,98716.00
2023-02-27T09:45:48.087Z,98725.00
2023-02-27T09:48:25.849Z,98706.00
2023-02-27T09:50:54.132Z,98711.00
2023-02-27T09:53:26.937Z,98711.00
2023-02-27T09:56:01.045Z,98718.00
2023-02-27T09:58:43.038Z,98721.00
2023-02-27T10:01:17.135Z,98723.00
2023-02-27T10:04:06.151Z,98718.00
2023-02-27T10:06:43.533Z,98720.00
2023-02-27T10:09:23.969Z,98725.00
2023-02-27T10:12:02.890Z,98728.00
2023-02-27T10:14:40.536Z,98735.00
2023-02-27T10:17:19.327Z,98726.00
2023-02-27T10:19:49.351Z,98731.00
2023-02-27T10:22:24.519Z,98729.00
2023-02-27T10:24:55.760Z,98724.00
2023-02-27T10:27:24.788Z,98732.00
2023-02-27T10:29:56.497Z,98733.00
2023-02-27T10:32:27.579Z,98736.00
2023-02-27T10:34:59.776Z,98739.00
2023-02-27T10:37:28.387Z,98734.00
2023-02-27T10:39:58.656Z,98731.00
2023-02-27T10:42:32.970Z,98729.00
2023-02-27T10:45:00.678Z,98724.00
2023-02-27T10:47:29.713Z,98730.00
2023-02-27T10:50:00.269Z,98733.00
2023-02-27T10:52:28.329Z,98728.00
2023-02-27T10:54:55.979Z,98745.00
2023-02-27T10:57:33.107Z,98737.00
2023-02-27T11:00:05.152Z,98743.00
2023-02-27T11:02:37.872Z,98729.00
2023-02-27T11:05:07.845Z,98733.00
2023-02-27T11:07:38.898Z,98746.00
2023-02-27T11:10:18.988Z,98740.00
2023-02-27T11:13:01.243Z,98735.00
2023-02-27T11:15:30.920Z,98741.00
2023-02-27T11:18:26.110Z,98738.00
2023-02-27T11:20:54.376Z,98727.00
2023-02-27T11:23:25.285Z,98724.00
2023-02-27T11:26:09.629Z,98734.00
2023-02-27T11:28:38.651Z,98743.00
2023-02-27T11:31:08.817Z,98731.00
2023-02-27T11:33:41.700Z,98741.00
2023-02-27T11:36:10.399Z,98735.00
2023-02-27T11:38:38.735Z,98738.00
2023-02-27T11:41:10.484Z,98729.00
2023-02-27T11:43:48.251Z,98733.00
2023-02-27T11:46:47.266Z,98736.00
2023-02-27T11:49:29.611Z,98721.00
2023-02-27T11:52:05.498Z,98722.00
2023-02-27T11:54:38.907Z,98713.00
2023-02-27T11:57:15.865Z,98717.00
2023-02-27T11:59:49.044Z,98719.00
2023-02-27T12:02:24.121Z,98714.00
2023-02-27T12:04:56.583Z,98713.00
2023-02-27T12:07:27.451Z,98707.00
2023-02-27T12:10:03.002Z,98708.00
2023-02-27T12:12:34.465Z,98702.00
2023-02-27T12:15:15.150Z,98703.00
2023-02-27T12:17:48.141Z,98707.00
2023-02-27T12:20:30.452Z,98708.00
2023-02-27T12:22:58.152Z,98698.00
2023-02-27T12:25:36.151Z,98701.00
2023-02-27T12:28:13.459Z,98698.00
2023-02-27T12:30:49.491Z,98705.00
2023-02-27T12:33:28.282Z,98694.00
2023-02-27T12:36:00.909Z,98696.00
2023-02-27T12:38:28.992Z,98699.00
2023-02-27T12:41:08.179Z,98703.00
2023-02-27T12:43:43.930Z,98690.00
2023-02-27T12:46:34.658Z,98696.00
2023-02-27T12:49:21.530Z,98691.00
2023-02-27T12:51:57.484Z,98692.00
2023-02-27T12:54:36.312Z,98693.00
2023-02-27T12:57:20.756Z,98689.00
2023-02-27T12:59:56.422Z,98691.00
2023-02-27T13:02:40.989Z,98684.00
2023-02-27T13:05:24.936Z,98686.00
2023-02-27T13:08:00.452Z,98688.00
2023-02-27T13:10:34.011Z,98690.00
2023-02-27T13:13:05.317Z,98685.00
2023-02-27T13:15:40.861Z,98682.00
2023-02-27T13:18:31.947Z,98679.00
2023-02-27T13:21:06.072Z,98685.00
2023-02-27T13:23:40.601Z,98681.00
2023-02-27T13:26:19.770Z,98681.00
2023-02-27T13:28:47.811Z,98679.00
2023-02-27T13:31:25.216Z,98680.00
2023-02-27T13:34:00.723Z,98680.00
2023-02-27T13:36:32.950Z,98668.00
2023-02-27T13:39:00.607Z,98675.00
2023-02-27T13:41:39.710Z,98668.00
2023-02-27T13:44:41.828Z,98675.00
2023-02-27T13:47:41.553Z,98657.00
2023-02-27T13:50:52.425Z,98655.00
2023-02-27T13:53:24.374Z,98656.00
2023-02-27T13:56:01.131Z,98657.00
2023-02-27T13:58:28.887Z,98643.00
2023-02-27T14:01:00.455Z,98655.00
2023-02-27T14:03:32.047Z,98655.00
2023-02-27T14:06:06.244Z,98661.00
2023-02-27T14:08:48.549Z,98660.00
2023-02-27T14:11:21.175Z,98652.00
2023-02-27T14:14:06.452Z,98658.00
2023-02-27T14:17:07.758Z,98653.00
2023-02-27T14:19:56.954Z,98651.00
2023-02-27T14:22:58.356Z,98644.00
2023-02-27T14:25:33.596Z,98643.00
2023-02-27T14:28:03.208Z,98659.00
2023-02-27T14:30:34.708Z,98657.00
2023-02-27T14:33:12.021Z,98660.00
2023-02-27T14:35:39.988Z,98667.00
2023-02-27T14:38:12.125Z,98667.00
2023-02-27T14:40:57.298Z,98656.00
2023-02-27T14:43:35.724Z,98663.00
2023-02-27T14:46:17.596Z,98659.00
2023-02-27T14:48:46.063Z,98670.00
2023-02-27T14:51:13.967Z,98660.00
2023-02-27T14:53:41.677Z,98665.00
2023-02-27T14:56:19.818Z,98676.00
2023-02-27T14:59:03.423Z,98668.00
2023-02-27T15:01:35.753Z,98667.00
2023-02-27T15:04:05.618Z,98671.00
2023-02-27T15:06:37.522Z,98673.00
2023-02-27T15:09:05.678Z,98677.00
2023-02-27T15:11:35.479Z,98668.00
2023-02-27T15:14:06.329Z,98674.00
2023-02-27T15:16:37.707Z,98676.00
2023-02-27T15:19:17.351Z,98682.00
2023-02-27T15:21:47.297Z,98689.00
2023-02-27T15:24:28.626Z,98693.00
2023-02-27T15:27:01.603Z,98687.00
2023-02-27T15:29:35.000Z,98689.00
2023-02-27T15:32:03.889Z,98690.00
2023-02-27T15:34:31.901Z,98685.00
2023-02-27T15:37:00.927Z,98693.00
2023-02-27T15:39:31.137Z,98689.00
2023-02-27T15:42:02.964Z,98694.00
2023-02-27T15:44:34.508Z,98694.00
2023-02-27T15:47:03.081Z,98693.00
2023-02-27T15:49:31.168Z,98692.00
2023-02-27T15:52:02.518Z,98698.00
2023-02-27T15:54:34.453Z,98690.00
2023-02-27T15:57:06.132Z,98697.00
2023-02-27T15:59:37.917Z,98698.00
2023-02-27T16:02:06.403Z,98700.00
2023-02-27T16:04:35.777Z,98696.00
2023-02-27T16:07:06.272Z,98709.00
2023-02-27T16:09:35.676Z,98709.00
2023-02-27T16:12:22.967Z,98715.00
2023-02-27T16:14:53.682Z,98722.00
2023-02-27T16:17:25.548Z,98722.00
2023-02-27T16:19:53.840Z,98728.00
2023-02-27T16:22:22.674Z,98726.00
2023-02-27T16:24:51.488Z,98735.00
2023-02-27T16:27:24.835Z,98732.00
2023-02-27T16:29:53.581Z,98735.00
2023-02-27T16:32:25.478Z,98738.00
2023-02-27T16:35:01.875Z,98740.00
2023-02-27T16:37:36.068Z,98743.00
2023-02-27T16:40:07.121Z,98744.00
2023-02-27T16:42:36.163Z,98748.00
2023-02-27T16:45:03.891Z,98748.00
2023-02-27T16:47:32.849Z,98751.00
2023-02-27T16:50:00.504Z,98754.00
2023-02-27T16:52:28.205Z,98758.00
2023-02-27T16:54:55.791Z,98759.00
2023-02-27T16:57:27.686Z,98765.00
2023-02-27T16:59:57.353Z,98761.00
2023-02-27T17:02:24.967Z,98760.00
2023-02-27T17:04:52.685Z,98766.00
2023-02-27T17:07:20.558Z,98765.00
2023-02-27T17:09:48.809Z,98762.00
2023-02-27T17:12:16.490Z,98765.00
2023-02-27T17:14:44.083Z,98770.00
2023-02-27T17:17:13.088Z,98778.00
2023-02-27T17:19:40.872Z,98777.00
2023-02-27T17:22:08.535Z,98792.00
2023-02-27T17:24:36.238Z,98782.00
2023-02-27T17:27:04.180Z,98794.00
2023-02-27T17:29:31.911Z,98791.00
2023-02-27T17:31:59.894Z,98796.00
2023-02-27T17:34:28.897Z,98796.00
2023-02-27T17:36:56.535Z,98801.00
2023-02-27T17:39:24.143Z,98807.00
2023-02-27T17:41:53.000Z,98806.00
2023-02-27T17:44:20.784Z,98805.00
2023-02-27T17:46:48.443Z,98810.00
2023-02-27T17:49:16.302Z,98816.00
2023-02-27T17:51:45.300Z,98814.00
2023-02-27T17:54:12.938Z,98819.00
2023-02-27T17:56:40.721Z,98819.00
2023-02-27T17:59:08.779Z,98825.00
2023-02-27T18:01:36.766Z,98823.00
2023-02-27T18:04:06.981Z,98824.00
2023-02-27T18:06:34.648Z,98821.00
2023-02-27T18:09:03.891Z,98829.00
2023-02-27T18:11:31.533Z,98835.00
2023-02-27T18:13:59.204Z,98840.00
2023-02-27T18:16:27.244Z,98824.00
2023-02-27T18:18:55.143Z,98826.00
2023-02-27T18:21:24.611Z,98834.00
2023-02-27T18:23:53.204Z,98833.00
2023-02-27T18:26:29.896Z,98826.00
2023-02-27T18:29:01.994Z,98839.00
2023-02-27T18:31:33.024Z,98834.00
2023-02-27T18:34:01.316Z,98836.00
2023-02-27T18:36:29.957Z,98838.00
2023-02-27T18:38:58.467Z,98838.00
2023-02-27T18:41:27.875Z,98835.00
2023-02-27T18:43:55.757Z,98832.00
2023-02-27T18:46:23.778Z,98831.00
2023-02-27T18:48:51.876Z,98832.00
2023-02-27T18:51:19.966Z,98837.00
2023-02-27T18:53:49.148Z,98835.00
2023-02-27T18:56:18.731Z,98838.00
2023-02-27T18:58:49.087Z,98837.00
2023-02-27T19:01:21.664Z,98837.00
2023-02-27T19:03:49.985Z,98840.00
2023-02-27T19:06:17.860Z,98845.00
2023-02-27T19:08:46.493Z,98835.00
2023-02-27T19:11:23.712Z,98836.00
2023-02-27T19:13:52.928Z,98830.00
2023-02-27T19:16:20.649Z,98838.00
2023-02-27T19:18:48.420Z,98840.00
2023-02-27T19:21:18.358Z,98841.00
2023-02-27T19:23:46.222Z,98845.00
2023-02-27T19:26:13.929Z,98844.00
2023-02-27T19:28:41.571Z,98839.00
2023-02-27T19:31:12.167Z,98841.00
2023-02-27T19:33:39.940Z,98842.00
2023-02-27T19:36:09.104Z,98839.00
2023-02-27T19:38:37.616Z,98839.00
2023-02-27T19:41:07.390Z,98845.00
2023-02-27T19:43:35.936Z,98844.00
2023-02-27T19:46:06.078Z,98842.00
2023-02-27T19:48:36.009Z,98843.00
2023-02-27T19:51:04.212Z,98846.00
2023-02-27T19:53:33.845Z,98848.00
2023-02-27T19:56:02.341Z,98854.00
2023-02-27T19:58:30.845Z,98859.00
2023-02-27T20:00:58.586Z,98858.00
2023-02-27T20:03:26.388Z,98852.00
2023-02-27T20:05:55.615Z,98860.00
2023-02-27T20:08:23.587Z,98855.00
2023-02-27T20:10:55.596Z,98852.00
2023-02-27T20:13:23.300Z,98863.00
2023-02-27T20:15:58.224Z,98860.00
2023-02-27T20:18:27.479Z,98866.00
2023-02-27T20:21:04.784Z,98861.00
2023-02-27T20:23:33.347Z,98858.00
2023-02-27T20:26:01.616Z,98859.00
2023-02-27T20:28:29.274Z,98858.00
2023-02-27T20:30:56.927Z,98864.00
2023-02-27T20:33:24.542Z,98857.00
2023-02-27T20:35:52.204Z,98862.00
2023-02-27T20:38:22.711Z,98859.00
2023-02-27T20:40:51.015Z,98859.00
2023-02-27T20:43:18.681Z,98863.00
2023-02-27T20:45:46.520Z,98854.00
2023-02-27T20:48:14.169Z,98858.00
2023-02-27T20:50:42.384Z,98855.00
2023-02-27T20:53:10.406Z,98855.00
2023-02-27T20:55:41.561Z,98856.00
2023-02-27T20:58:09.206Z,98860.00
2023-02-27T21:00:37.035Z,98849.00
2023-02-27T21:03:04.820Z,98848.00
2023-02-27T21:05:32.824Z,98853.00
2023-02-27T21:08:00.967Z,98856.00
2023-02-27T21:10:28.691Z,98851.00
2023-02-27T21:12:57.638Z,98843.00
2023-02-27T21:15:25.267Z,98851.00
2023-02-27T21:17:52.900Z,98846.00
2023-02-27T21:20:20.666Z,98859.00
2023-02-27T21:22:48.470Z,98849.00
2023-02-27T21:25:16.307Z,98848.00
2023-02-27T21:27:43.908Z,98846.00
2023-02-27T21:30:13.839Z,98853.00
2023-02-27T21:32:41.467Z,98840.00
2023-02-27T21:35:09.956Z,98847.00
2023-02-27T21:37:37.583Z,98846.00
2023-02-27T21:40:06.452Z,98829.00
2023-02-27T21:42:34.134Z,98838.00
2023-02-27T21:45:01.761Z,98826.00
2023-02-27T21:47:31.204Z,98833.00
2023-02-27T21:49:58.883Z,98826.00
2023-02-27T21:52:26.589Z,98831.00
2023-02-27T21:54:54.247Z,98826.00
2023-02-27T21:57:23.048Z,98818.00
2023-02-27T21:59:50.739Z,98829.00
2023-02-27T22:02:19.048Z,98824.00
2023-02-27T22:04:48.120Z,98819.00
2023-02-27T22:07:15.737Z,98820.00
2023-02-27T22:09:43.567Z,98820.00
2023-02-27T22:12:11.240Z,98822.00
2023-02-27T22:14:39.526Z,98826.00
2023-02-27T22:17:07.154Z,98822.00
2023-02-27T22:19:34.755Z,98827.00
2023-02-27T22:22:03.820Z,98820.00
2023-02-27T22:24:31.453Z,98823.00
2023-02-27T22:26:59.142Z,98819.00
2023-02-27T22:29:26.806Z,98820.00
2023-02-27T22:31:54.560Z,98817.00
2023-02-27T22:34:22.281Z,98812.00
2023-02-27T22:36:52.564Z,98812.00
2023-02-27T22:39:22.070Z,98817.00
2023-02-27T22:41:49.757Z,98815.00
2023-02-27T22:44:17.820Z,98814.00
2023-02-27T22:46:47.237Z,98819.00
2023-02-27T22:49:16.967Z,98813.00
2023-02-27T22:51:46.603Z,98809.00
2023-02-27T22:54:16.007Z,98805.00
2023-02-27T22:56:46.178Z,98806.00
2023-02-27T22:59:15.011Z,98812.00
2023-02-27T23:01:42.688Z,98806.00
2023-02-27T23:04:11.344Z,98811.00
2023-02-27T23:06:40.812Z,98802.00
2023-02-27T23:09:17.554Z,98811.00
2023-02-27T23:11:46.977Z,98805.00
2023-02-27T23:14:15.402Z,98812.00
2023-02-27T23:16:45.525Z,98803.00
2023-02-27T23:19:15.484Z,98809.00
2023-02-27T23:21:43.394Z,98807.00
2023-02-27T23:24:14.537Z,98805.00
2023-02-27T23:26:44.031Z,98801.00
2023-02-27T23:29:13.565Z,98808.00
2023-02-27T23:31:42.252Z,98808.00
2023-02-27T23:34:10.609Z,98801.00
2023-02-27T23:36:39.340Z,98802.00
2023-02-27T23:39:08.385Z,98800.00
2023-02-27T23:41:36.529Z,98806.00
2023-02-27T23:44:04.220Z,98800.00
2023-02-27T23:46:33.223Z,98798.00
2023-02-27T23:49:02.881Z,98800.00
2023-02-27T23:51:31.430Z,98798.00
2023-02-27T23:53:59.458Z,98793.00
2023-02-27T23:56:29.068Z,98797.00
2023-02-27T23:58:59.162Z,98791.00
